createdAt,value
2024-02-13T00:01:43.768Z,84.43
2024-02-13T00:04:16.003Z,84.00
2024-02-13T00:06:43.194Z,84.65
2024-02-13T00:09:10.266Z,83.54
2024-02-13T00:11:36.912Z,84.01
2024-02-13T00:14:08.841Z,84.34
2024-02-13T00:16:39.957Z,83.99
2024-02-13T00:19:06.713Z,84.61
2024-02-13T00:21:34.204Z,84.59
2024-02-13T00:24:01.216Z,85.28
2024-02-13T00:26:27.927Z,84.59
2024-02-13T00:28:54.525Z,85.87
2024-02-13T00:31:22.482Z,85.80
2024-02-13T00:33:49.706Z,86.07
2024-02-13T00:36:16.999Z,85.71
2024-02-13T00:38:45.070Z,84.47
2024-02-13T00:41:11.771Z,84.65
2024-02-13T00:43:38.422Z,85.29
2024-02-13T00:46:05.183Z,84.79
2024-02-13T00:48:33.390Z,85.31
2024-02-13T00:51:00.065Z,86.22
2024-02-13T00:53:26.772Z,85.49
2024-02-13T00:55:53.687Z,85.89
2024-02-13T00:58:20.375Z,87.49
2024-02-13T01:00:47.107Z,86.92
2024-02-13T01:03:13.742Z,86.70
2024-02-13T01:05:45.220Z,87.86
2024-02-13T01:08:11.949Z,86.87
2024-02-13T01:10:38.674Z,86.55
2024-02-13T01:13:06.085Z,86.77
2024-02-13T01:15:33.192Z,86.88
2024-02-13T01:18:00.435Z,88.22
2024-02-13T01:20:27.214Z,86.96
2024-02-13T01:22:55.362Z,86.03
2024-02-13T01:25:22.015Z,87.20
2024-02-13T01:27:48.731Z,87.40
2024-02-13T01:30:15.482Z,86.80
2024-02-13T01:32:42.360Z,87.21
2024-02-13T01:35:10.035Z,87.70
2024-02-13T01:37:36.768Z,87.45
2024-02-13T01:40:06.886Z,87.89
2024-02-13T01:42:38.438Z,87.30
2024-02-13T01:45:06.945Z,87.69
2024-02-13T01:47:33.648Z,87.89
2024-02-13T01:50:00.375Z,87.00
2024-02-13T01:52:27.260Z,87.60
2024-02-13T01:54:53.855Z,87.18
2024-02-13T01:57:21.854Z,87.20
2024-02-13T01:59:48.661Z,87.04
2024-02-13T02:02:15.411Z,86.60
2024-02-13T02:04:42.351Z,87.25
2024-02-13T02:07:09.189Z,87.36
2024-02-13T02:09:36.130Z,87.36
2024-02-13T02:12:03.012Z,87.58
2024-02-13T02:14:31.322Z,87.34
2024-02-13T02:17:07.508Z,87.47
2024-02-13T02:19:34.804Z,87.89
2024-02-13T02:22:01.376Z,87.12
2024-02-13T02:24:27.977Z,87.91
2024-02-13T02:26:57.913Z,87.55
2024-02-13T02:29:26.176Z,87.42
2024-02-13T02:31:52.843Z,87.27
2024-02-13T02:34:22.221Z,87.98
2024-02-13T02:36:52.924Z,86.81
2024-02-13T02:39:20.080Z,86.74
2024-02-13T02:41:50.881Z,87.19
2024-02-13T02:44:20.226Z,88.55
2024-02-13T02:46:48.536Z,87.88
2024-02-13T02:49:17.057Z,87.14
2024-02-13T02:51:43.677Z,87.67
2024-02-13T02:54:10.398Z,87.95
2024-02-13T02:56:40.124Z,87.58
2024-02-13T02:59:06.816Z,87.51
2024-02-13T03:01:35.440Z,87.49
2024-02-13T03:04:05.868Z,87.73
2024-02-13T03:06:34.916Z,87.18
2024-02-13T03:09:01.773Z,87.57
2024-02-13T03:11:28.447Z,87.46
2024-02-13T03:13:55.089Z,86.99
2024-02-13T03:16:21.659Z,87.44
2024-02-13T03:18:49.704Z,87.49
2024-02-13T03:21:16.337Z,86.84
2024-02-13T03:23:43.942Z,87.84
2024-02-13T03:26:10.387Z,86.97
2024-02-13T03:28:37.648Z,86.86
2024-02-13T03:31:06.002Z,87.31
2024-02-13T03:33:33.088Z,87.00
2024-02-13T03:36:02.552Z,87.57
2024-02-13T03:38:29.159Z,87.83
2024-02-13T03:40:57.164Z,88.57
2024-02-13T03:43:23.817Z,87.38
2024-02-13T03:45:50.421Z,86.70
2024-02-13T03:48:18.023Z,87.39
2024-02-13T03:50:44.850Z,87.21
2024-02-13T03:53:15.727Z,87.51
2024-02-13T03:55:42.583Z,87.16
2024-02-13T03:58:09.201Z,87.61
2024-02-13T04:00:36.205Z,87.02
2024-02-13T04:03:02.841Z,86.12
2024-02-13T04:05:29.941Z,87.17
2024-02-13T04:07:56.916Z,86.91
2024-02-13T04:10:25.060Z,86.63
2024-02-13T04:12:51.819Z,86.55
2024-02-13T04:15:18.491Z,87.35
2024-02-13T04:17:45.741Z,86.93
2024-02-13T04:20:12.795Z,87.92
2024-02-13T04:22:39.526Z,88.03
2024-02-13T04:25:07.345Z,86.61
2024-02-13T04:27:35.943Z,87.75
2024-02-13T04:30:03.525Z,86.95
2024-02-13T04:32:30.380Z,87.09
2024-02-13T04:34:57.591Z,87.07
2024-02-13T04:37:24.453Z,88.13
2024-02-13T04:39:51.063Z,87.23
2024-02-13T04:42:30.416Z,86.70
2024-02-13T04:44:58.809Z,87.28
2024-02-13T04:47:25.782Z,86.59
2024-02-13T04:49:52.408Z,86.69
2024-02-13T04:52:19.141Z,87.27
2024-02-13T04:54:45.798Z,86.61
2024-02-13T04:57:12.908Z,86.73
2024-02-13T04:59:49.173Z,87.17
2024-02-13T05:02:19.241Z,86.65
2024-02-13T05:05:05.011Z,86.90
2024-02-13T05:07:31.678Z,85.85
2024-02-13T05:09:58.337Z,86.43
2024-02-13T05:12:25.256Z,86.14
2024-02-13T05:14:53.677Z,86.97
2024-02-13T05:17:22.549Z,87.92
2024-02-13T05:19:51.929Z,86.83
2024-02-13T05:22:18.607Z,87.17
2024-02-13T05:24:45.189Z,86.36
2024-02-13T05:27:11.856Z,87.50
2024-02-13T05:29:42.847Z,87.59
2024-02-13T05:32:09.749Z,86.85
2024-02-13T05:34:38.211Z,87.33
2024-02-13T05:37:06.341Z,87.91
2024-02-13T05:39:32.922Z,88.41
2024-02-13T05:41:59.617Z,86.92
2024-02-13T05:44:26.246Z,86.84
2024-02-13T05:46:52.812Z,86.71
2024-02-13T05:49:19.434Z,86.78
2024-02-13T05:51:47.414Z,85.94
2024-02-13T05:54:15.435Z,87.14
2024-02-13T05:56:42.245Z,86.83
2024-02-13T05:59:10.368Z,87.18
2024-02-13T06:01:37.159Z,86.85
2024-02-13T06:04:07.432Z,87.86
2024-02-13T06:06:38.561Z,86.80
2024-02-13T06:09:07.739Z,86.10
2024-02-13T06:11:37.556Z,86.33
2024-02-13T06:14:04.260Z,85.91
2024-02-13T06:16:31.302Z,86.97
2024-02-13T06:18:58.012Z,87.13
2024-02-13T06:21:27.351Z,86.55
2024-02-13T06:23:54.508Z,87.10
2024-02-13T06:26:22.506Z,86.50
2024-02-13T06:28:49.233Z,86.15
2024-02-13T06:31:16.470Z,86.29
2024-02-13T06:33:43.511Z,86.58
2024-02-13T06:36:11.366Z,87.14
2024-02-13T06:38:37.995Z,85.93
2024-02-13T06:41:07.708Z,85.76
2024-02-13T06:43:36.092Z,86.60
2024-02-13T06:46:02.826Z,85.63
2024-02-13T06:48:29.712Z,85.87
2024-02-13T06:50:56.454Z,87.27
2024-02-13T06:53:23.770Z,86.51
2024-02-13T06:55:50.364Z,87.44
2024-02-13T06:58:18.450Z,86.55
2024-02-13T07:00:46.554Z,85.80
2024-02-13T07:03:13.288Z,86.70
2024-02-13T07:05:39.958Z,86.80
2024-02-13T07:08:07.253Z,87.26
2024-02-13T07:10:35.096Z,87.12
2024-02-13T07:13:01.726Z,86.59
2024-02-13T07:15:28.349Z,87.41
2024-02-13T07:18:00.608Z,86.99
2024-02-13T07:20:29.518Z,87.46
2024-02-13T07:22:56.372Z,87.11
2024-02-13T07:25:23.100Z,86.22
2024-02-13T07:27:52.672Z,86.52
2024-02-13T07:30:19.622Z,86.51
2024-02-13T07:32:47.346Z,86.31
2024-02-13T07:35:15.833Z,86.76
2024-02-13T07:37:42.723Z,86.63
2024-02-13T07:40:09.751Z,87.34
2024-02-13T07:42:36.337Z,86.97
2024-02-13T07:45:04.729Z,85.58
2024-02-13T07:47:31.528Z,85.35
2024-02-13T07:50:01.168Z,85.22
2024-02-13T07:52:29.159Z,85.48
2024-02-13T07:54:55.705Z,86.37
2024-02-13T07:57:22.646Z,86.16
2024-02-13T07:59:55.827Z,85.79
2024-02-13T08:02:24.436Z,85.48
2024-02-13T08:04:52.625Z,85.72
2024-02-13T08:07:19.434Z,85.86
2024-02-13T08:09:47.766Z,86.10
2024-02-13T08:12:14.550Z,85.03
2024-02-13T08:14:41.302Z,84.69
2024-02-13T08:17:09.591Z,84.77
2024-02-13T08:19:37.752Z,84.21
2024-02-13T08:22:04.813Z,84.45
2024-02-13T08:24:32.039Z,84.00
2024-02-13T08:27:00.167Z,84.06
2024-02-13T08:29:29.100Z,84.85
2024-02-13T08:31:57.910Z,83.61
2024-02-13T08:34:25.491Z,83.64
2024-02-13T08:36:53.353Z,83.78
2024-02-13T08:39:19.926Z,83.65
2024-02-13T08:41:46.591Z,84.09
2024-02-13T08:44:14.672Z,83.33
2024-02-13T08:46:41.387Z,82.72
2024-02-13T08:49:08.092Z,82.13
2024-02-13T08:51:37.987Z,82.54
2024-02-13T08:54:05.846Z,82.15
2024-02-13T08:56:32.526Z,81.93
2024-02-13T08:59:00.036Z,81.46
2024-02-13T09:01:27.875Z,81.58
2024-02-13T09:03:54.514Z,81.11
2024-02-13T09:06:21.584Z,81.12
2024-02-13T09:08:48.719Z,80.42
2024-02-13T09:11:15.552Z,80.58
2024-02-13T09:13:42.525Z,79.79
2024-02-13T09:16:12.326Z,78.93
2024-02-13T09:18:42.496Z,79.84
2024-02-13T09:21:11.205Z,78.66
2024-02-13T09:23:38.146Z,77.91
2024-02-13T09:26:05.427Z,78.96
2024-02-13T09:28:32.442Z,78.89
2024-02-13T09:30:59.394Z,77.92
2024-02-13T09:33:27.322Z,78.68
2024-02-13T09:35:56.055Z,76.90
2024-02-13T09:38:23.155Z,77.24
2024-02-13T09:40:50.231Z,78.41
2024-02-13T09:43:17.229Z,76.70
2024-02-13T09:45:45.582Z,76.69
2024-02-13T09:48:26.872Z,76.69
2024-02-13T09:50:59.475Z,75.78
2024-02-13T09:53:30.422Z,76.35
2024-02-13T09:56:00.377Z,75.98
2024-02-13T09:58:27.302Z,75.13
2024-02-13T10:00:58.497Z,75.11
2024-02-13T10:03:27.321Z,75.22
2024-02-13T10:05:55.623Z,75.40
2024-02-13T10:08:28.254Z,75.83
2024-02-13T10:11:00.919Z,73.85
2024-02-13T10:13:31.648Z,74.82
2024-02-13T10:15:58.244Z,73.85
2024-02-13T10:18:26.286Z,73.60
2024-02-13T10:20:53.070Z,74.92
2024-02-13T10:23:24.610Z,72.98
2024-02-13T10:25:51.332Z,72.49
2024-02-13T10:28:18.351Z,73.06
2024-02-13T10:30:49.785Z,72.27
2024-02-13T10:33:16.992Z,72.71
2024-02-13T10:35:43.890Z,71.56
2024-02-13T10:38:11.536Z,71.72
2024-02-13T10:40:40.749Z,70.61
2024-02-13T10:43:13.363Z,71.82
2024-02-13T10:45:40.293Z,72.12
2024-02-13T10:48:13.681Z,70.48
2024-02-13T10:50:42.099Z,70.95
2024-02-13T10:53:09.122Z,70.66
2024-02-13T10:55:36.038Z,69.34
2024-02-13T10:58:11.658Z,68.83
2024-02-13T11:00:41.244Z,69.31
2024-02-13T11:03:09.066Z,67.80
2024-02-13T11:05:37.191Z,68.82
2024-02-13T11:08:04.424Z,68.74
2024-02-13T11:10:35.859Z,67.56
2024-02-13T11:13:07.078Z,67.18
2024-02-13T11:15:34.439Z,67.73
2024-02-13T11:18:02.185Z,66.81
2024-02-13T11:20:31.572Z,65.58
2024-02-13T11:23:00.793Z,65.24
2024-02-13T11:25:28.311Z,65.37
2024-02-13T11:27:59.056Z,64.58
2024-02-13T11:30:29.406Z,65.19
2024-02-13T11:33:00.185Z,65.21
2024-02-13T11:35:31.482Z,64.26
2024-02-13T11:38:02.186Z,64.25
2024-02-13T11:40:28.841Z,63.32
2024-02-13T11:42:55.429Z,65.29
2024-02-13T11:45:22.743Z,63.69
2024-02-13T11:47:51.166Z,63.35
2024-02-13T11:50:21.215Z,63.12
2024-02-13T11:52:49.240Z,63.77
2024-02-13T11:55:16.044Z,61.25
2024-02-13T11:57:45.910Z,61.83
2024-02-13T12:00:20.214Z,61.91
2024-02-13T12:02:50.639Z,61.27
2024-02-13T12:05:20.479Z,62.31
2024-02-13T12:07:47.765Z,62.49
2024-02-13T12:10:15.878Z,59.64
2024-02-13T12:12:42.752Z,60.71
2024-02-13T12:15:11.695Z,60.24
2024-02-13T12:20:20.125Z,59.47
2024-02-13T12:22:48.429Z,61.88
2024-02-13T12:25:19.328Z,59.56
2024-02-13T12:27:46.136Z,60.52
2024-02-13T12:30:13.229Z,59.21
2024-02-13T12:32:41.065Z,57.53
2024-02-13T12:35:22.543Z,57.21
2024-02-13T12:37:53.228Z,57.76
2024-02-13T12:40:21.439Z,59.38
2024-02-13T12:42:48.129Z,59.78
2024-02-13T12:45:14.850Z,60.85
2024-02-13T12:47:42.815Z,60.66
2024-02-13T12:50:15.190Z,58.26
2024-02-13T12:52:41.930Z,57.87
2024-02-13T12:55:13.586Z,60.55
2024-02-13T12:57:41.850Z,57.87
2024-02-13T13:00:15.804Z,58.52
2024-02-13T13:02:42.868Z,60.04
2024-02-13T13:05:14.138Z,59.53
2024-02-13T13:07:41.872Z,56.83
2024-02-13T13:10:14.494Z,57.16
2024-02-13T13:12:45.725Z,57.24
2024-02-13T13:15:19.811Z,57.67
2024-02-13T13:17:49.506Z,56.51
2024-02-13T13:20:19.534Z,57.32
2024-02-13T13:22:48.890Z,56.01
2024-02-13T13:25:25.097Z,58.68
2024-02-13T13:27:52.898Z,58.65
2024-02-13T13:30:20.760Z,57.57
2024-02-13T13:32:48.240Z,58.46
2024-02-13T13:35:21.224Z,56.22
2024-02-13T13:37:48.890Z,56.85
2024-02-13T13:40:18.151Z,58.10
2024-02-13T13:42:44.914Z,57.81
2024-02-13T13:45:15.603Z,58.98
2024-02-13T13:47:45.775Z,57.42
2024-02-13T13:50:13.006Z,59.74
2024-02-13T13:52:39.553Z,59.54
2024-02-13T13:55:07.548Z,60.88
2024-02-13T13:57:35.533Z,58.86
2024-02-13T14:00:09.650Z,58.51
2024-02-13T14:02:37.711Z,56.90
2024-02-13T14:05:05.008Z,59.09
2024-02-13T14:07:31.425Z,59.45
2024-02-13T14:09:58.049Z,59.98
2024-02-13T14:12:24.610Z,59.54
2024-02-13T14:14:53.896Z,59.78
2024-02-13T14:17:20.745Z,60.36
2024-02-13T14:19:47.402Z,58.48
2024-02-13T14:22:15.962Z,60.01
2024-02-13T14:24:42.614Z,58.50
2024-02-13T14:27:11.844Z,58.99
2024-02-13T14:29:38.955Z,59.50
2024-02-13T14:32:07.532Z,61.29
2024-02-13T14:34:36.697Z,59.35
2024-02-13T14:37:07.102Z,59.76
2024-02-13T14:39:33.739Z,59.88
2024-02-13T14:42:01.180Z,60.36
2024-02-13T14:44:28.066Z,62.21
2024-02-13T14:46:58.380Z,59.75
2024-02-13T14:51:54.956Z,60.81
2024-02-13T14:54:22.524Z,61.49
2024-02-13T14:56:50.601Z,61.23
2024-02-13T14:59:17.446Z,59.92
2024-02-13T15:01:44.203Z,61.38
2024-02-13T15:04:10.911Z,61.77
2024-02-13T15:06:39.816Z,61.25
2024-02-13T15:09:11.059Z,61.45
2024-02-13T15:11:38.452Z,62.68
2024-02-13T15:14:06.821Z,63.40
2024-02-13T15:16:34.322Z,62.21
2024-02-13T15:19:02.779Z,62.52
2024-02-13T15:21:29.619Z,63.17
2024-02-13T15:23:57.635Z,63.41
2024-02-13T15:26:26.193Z,64.06
2024-02-13T15:28:53.967Z,64.65
2024-02-13T15:31:20.863Z,64.73
2024-02-13T15:33:50.264Z,63.52
2024-02-13T15:36:33.018Z,65.46
2024-02-13T15:39:19.765Z,64.41
2024-02-13T15:42:19.105Z,64.50
2024-02-13T15:45:04.649Z,65.25
2024-02-13T15:47:34.930Z,64.94
2024-02-13T15:50:02.265Z,65.66
2024-02-13T15:52:28.900Z,66.69
2024-02-13T15:54:57.366Z,66.31
2024-02-13T15:57:25.398Z,66.48
2024-02-13T15:59:53.125Z,66.99
2024-02-13T16:02:20.876Z,67.57
2024-02-13T16:04:48.245Z,68.15
2024-02-13T16:07:16.684Z,67.45
2024-02-13T16:09:44.980Z,66.79
2024-02-13T16:12:12.990Z,67.73
2024-02-13T16:14:39.759Z,66.86
2024-02-13T16:17:06.520Z,68.47
2024-02-13T16:19:33.369Z,66.94
2024-02-13T16:22:00.130Z,66.97
2024-02-13T16:24:26.759Z,67.36
2024-02-13T16:26:54.636Z,68.28
2024-02-13T16:29:28.558Z,69.04
2024-02-13T16:31:55.767Z,69.04
2024-02-13T16:34:22.878Z,69.36
2024-02-13T16:36:49.745Z,68.61
2024-02-13T16:39:18.728Z,68.16
2024-02-13T16:41:50.084Z,68.37
2024-02-13T16:44:18.868Z,68.29
2024-02-13T16:46:49.437Z,67.72
2024-02-13T16:49:16.692Z,67.50
2024-02-13T16:51:43.248Z,68.26
2024-02-13T16:54:11.056Z,68.88
2024-02-13T16:56:37.745Z,67.52
2024-02-13T16:59:05.284Z,67.64
2024-02-13T17:01:32.047Z,67.53
2024-02-13T17:04:01.986Z,67.31
2024-02-13T17:06:31.924Z,68.27
2024-02-13T17:08:58.884Z,67.41
2024-02-13T17:11:25.943Z,67.62
2024-02-13T17:13:52.599Z,66.87
2024-02-13T17:16:20.178Z,66.64
2024-02-13T17:18:47.248Z,67.26
2024-02-13T17:21:17.020Z,66.87
2024-02-13T17:23:44.801Z,67.94
2024-02-13T17:26:11.539Z,67.26
2024-02-13T17:28:39.895Z,67.78
2024-02-13T17:31:06.445Z,67.74
2024-02-13T17:33:33.153Z,68.58
2024-02-13T17:36:00.040Z,68.58
2024-02-13T17:38:28.853Z,68.19
2024-02-13T17:40:55.591Z,68.77
2024-02-13T17:43:22.204Z,69.05
2024-02-13T17:45:48.898Z,67.91
2024-02-13T17:48:15.824Z,68.28
2024-02-13T17:50:42.602Z,68.76
2024-02-13T17:53:09.282Z,69.30
2024-02-13T17:55:38.434Z,69.66
2024-02-13T17:58:05.200Z,69.21
2024-02-13T18:00:35.804Z,69.51
2024-02-13T18:03:05.558Z,69.11
2024-02-13T18:05:32.395Z,69.62
2024-02-13T18:08:04.442Z,70.39
2024-02-13T18:10:32.082Z,69.15
2024-02-13T18:13:00.180Z,69.42
2024-02-13T18:15:28.285Z,69.14
2024-02-13T18:17:56.784Z,70.80
2024-02-13T18:20:24.034Z,70.00
2024-02-13T18:22:51.346Z,70.16
2024-02-13T18:25:17.988Z,70.19
2024-02-13T18:27:44.789Z,70.15
2024-02-13T18:30:13.804Z,71.00
2024-02-13T18:32:40.582Z,70.79
2024-02-13T18:35:10.405Z,70.79
2024-02-13T18:37:38.205Z,71.01
2024-02-13T18:40:06.982Z,70.46
2024-02-13T18:42:33.717Z,69.89
2024-02-13T18:45:00.544Z,70.57
2024-02-13T18:47:29.749Z,71.20
2024-02-13T18:49:56.585Z,71.45
2024-02-13T18:52:24.670Z,70.49
2024-02-13T18:54:51.326Z,70.73
2024-02-13T18:57:17.990Z,70.91
2024-02-13T18:59:45.122Z,71.27
2024-02-13T19:02:11.757Z,70.94
2024-02-13T19:04:39.820Z,71.33
2024-02-13T19:07:06.584Z,70.66
2024-02-13T19:09:33.243Z,70.67
2024-02-13T19:11:59.923Z,71.53
2024-02-13T19:14:26.548Z,70.16
2024-02-13T19:16:54.497Z,71.07
2024-02-13T19:19:21.185Z,70.59
2024-02-13T19:21:49.220Z,71.19
2024-02-13T19:24:16.151Z,70.92
2024-02-13T19:26:42.897Z,71.25
2024-02-13T19:29:09.474Z,71.57
2024-02-13T19:31:36.016Z,70.70
2024-02-13T19:34:02.977Z,71.46
2024-02-13T19:36:31.542Z,71.74
2024-02-13T19:39:02.960Z,71.27
2024-02-13T19:41:29.650Z,71.02
2024-02-13T19:43:56.233Z,71.84
2024-02-13T19:46:24.134Z,72.30
2024-02-13T19:48:52.245Z,70.78
2024-02-13T19:51:19.394Z,71.61
2024-02-13T19:53:46.586Z,72.26
2024-02-13T19:56:15.448Z,71.63
2024-02-13T19:58:43.399Z,72.07
2024-02-13T20:01:10.327Z,71.99
2024-02-13T20:03:37.762Z,71.68
2024-02-13T20:06:04.703Z,71.58
2024-02-13T20:08:31.652Z,71.76
2024-02-13T20:10:58.478Z,72.28
2024-02-13T20:13:26.637Z,72.21
2024-02-13T20:15:53.237Z,72.39
2024-02-13T20:18:20.348Z,71.34
2024-02-13T20:20:47.357Z,71.61
2024-02-13T20:23:14.057Z,72.30
2024-02-13T20:25:40.681Z,72.21
2024-02-13T20:28:09.186Z,71.89
2024-02-13T20:30:40.114Z,72.51
2024-02-13T20:33:07.402Z,72.79
2024-02-13T20:35:34.084Z,73.41
2024-02-13T20:38:01.049Z,73.15
2024-02-13T20:40:27.704Z,72.85
2024-02-13T20:42:54.394Z,71.79
2024-02-13T20:45:23.550Z,72.78
2024-02-13T20:47:55.176Z,72.45
2024-02-13T20:50:22.125Z,72.27
2024-02-13T20:52:48.859Z,72.44
2024-02-13T20:55:16.892Z,72.43
2024-02-13T20:57:44.446Z,72.12
2024-02-13T21:00:15.455Z,72.33
2024-02-13T21:02:43.147Z,72.34
2024-02-13T21:05:11.360Z,72.49
2024-02-13T21:07:38.214Z,73.13
2024-02-13T21:10:07.124Z,73.39
2024-02-13T21:12:33.815Z,72.72
2024-02-13T21:15:00.654Z,73.22
2024-02-13T21:17:28.303Z,73.24
2024-02-13T21:20:00.758Z,73.35
2024-02-13T21:22:47.591Z,74.24
2024-02-13T21:25:14.175Z,74.11
2024-02-13T21:27:40.810Z,74.05
2024-02-13T21:30:08.304Z,74.73
2024-02-13T21:32:36.091Z,74.83
2024-02-13T21:35:04.151Z,74.64
2024-02-13T21:37:33.544Z,74.56
2024-02-13T21:40:00.218Z,75.04
2024-02-13T21:42:26.813Z,75.10
2024-02-13T21:44:53.441Z,74.94
2024-02-13T21:47:20.153Z,74.98
2024-02-13T21:49:46.928Z,74.40
2024-02-13T21:52:13.577Z,74.53
2024-02-13T21:54:41.490Z,74.83
2024-02-13T21:57:08.145Z,74.65
2024-02-13T21:59:34.871Z,74.30
2024-02-13T22:02:01.582Z,74.36
2024-02-13T22:04:31.293Z,74.62
2024-02-13T22:06:59.949Z,75.31
2024-02-13T22:09:26.390Z,75.24
2024-02-13T22:11:54.404Z,75.77
2024-02-13T22:14:21.381Z,77.28
2024-02-13T22:16:50.271Z,77.58
2024-02-13T22:19:17.057Z,78.70
2024-02-13T22:21:43.836Z,78.76
2024-02-13T22:24:10.666Z,79.36
2024-02-13T22:26:38.170Z,80.25
2024-02-13T22:29:07.446Z,80.86
2024-02-13T22:31:34.700Z,81.34
2024-02-13T22:34:01.542Z,82.18
2024-02-13T22:36:28.259Z,81.57
2024-02-13T22:38:55.478Z,82.24
2024-02-13T22:41:23.235Z,82.14
2024-02-13T22:43:49.979Z,82.55
2024-02-13T22:46:17.907Z,82.47
2024-02-13T22:48:44.641Z,82.76
2024-02-13T22:51:12.021Z,82.65
2024-02-13T22:53:38.726Z,83.24
2024-02-13T22:56:06.056Z,84.54
2024-02-13T22:58:33.024Z,83.90
2024-02-13T23:01:00.227Z,84.49
2024-02-13T23:03:29.380Z,84.07
2024-02-13T23:06:00.625Z,84.75
2024-02-13T23:08:29.626Z,84.36
2024-02-13T23:10:56.842Z,85.05
2024-02-13T23:13:28.642Z,84.63
2024-02-13T23:16:01.313Z,84.47
2024-02-13T23:18:29.527Z,84.96
2024-02-13T23:20:56.435Z,85.22
2024-02-13T23:23:23.086Z,85.00
2024-02-13T23:25:49.925Z,84.62
2024-02-13T23:28:17.435Z,84.91
2024-02-13T23:30:44.808Z,85.38
2024-02-13T23:33:12.191Z,84.91
2024-02-13T23:35:40.344Z,85.27
2024-02-13T23:38:09.202Z,85.09
2024-02-13T23:40:36.292Z,84.80
2024-02-13T23:43:03.008Z,84.05
2024-02-13T23:45:29.654Z,84.39
2024-02-13T23:47:56.299Z,85.46
2024-02-13T23:50:23.011Z,85.44
2024-02-13T23:52:51.236Z,85.19
2024-02-13T23:55:17.881Z,85.42
2024-02-13T23:57:47.206Z,84.67
